Hebe — A8OH7 — position and weather

sailwx.info

Track history (hours):
 
Tides and Currents Weather Stations Pressure Air Temp Water Temp Dewpoint Dewpoint Depression Visibility Wind Speed Wind Dir Waves Ship Positions

Hebe

Last reported at 2014-Dec-17 12:00 UTC. Time now 2014-Dec-18 10:34 UTC.
Position S 22°54' E 110°54'.

Length 220 m; draft 11.8 m.

Type: Ship. MMSI: 636091480.

Wind from 200 at 18 knots

Waves 3.5 meters (11 feet), 10 second period

Barometer 1011.0 mb
Air temperature 22.0 ° C
Visibility: greater than 10.8 NM
Dewpoint 19.0 ° C
Water temperature 23.0 ° C

Date/timePositionNaut miles runAvg speedWind from/ knotsBaromVisibWave heightAir tempDewpointWater temp
2014-Dec-17 12:00S 22°54' E 110°54'14716.3 200 / 181011.010.8 3.522.019.023.0
2014-Dec-17 03:00S 20°36' E 110°00'   200 / 141011.510.8 3.024.021.124.0
2014-Dec-14 15:00S 05°48' E 105°48'   360 / 101011.010.8 27.524.129.0
2014-Dec-12 07:20N 01°16' E 104°13'1215.3
2014-Dec-12 06:32N 01°15' E 104°01'7 6.6
2014-Dec-12 05:29N 01°16' E 103°54'0 0.0
2014-Dec-12 04:23N 01°16' E 103°54'0 0.0
2014-Dec-12 03:16N 01°16' E 103°54'0 0.0
2014-Dec-12 02:28N 01°16' E 103°54'0 0.0
2014-Dec-12 01:28N 01°16' E 103°54'0 0.0
2014-Dec-12 00:33N 01°16' E 103°54'0 0.0
2014-Dec-11 23:27N 01°16' E 103°54'0 0.0
2014-Dec-11 22:32N 01°16' E 103°54'0 0.0
2014-Dec-11 21:23N 01°16' E 103°54'0 0.0
2014-Dec-11 20:16N 01°16' E 103°54'0 0.0
2014-Dec-11 19:31N 01°16' E 103°54'0 0.0
2014-Dec-11 18:31N 01°16' E 103°54'0 0.0
2014-Dec-11 17:18N 01°16' E 103°54'0 0.1
2014-Dec-11 16:12N 01°16' E 103°54'4 5.6
2014-Dec-11 15:33N 01°13' E 103°52'8 7.6
2014-Dec-11 14:33N 01°16' E 103°45'0 0.2
2014-Dec-11 13:30N 01°17' E 103°45'0 0.0
2014-Dec-11 12:32N 01°17' E 103°45'0 0.0
2014-Dec-11 11:31N 01°17' E 103°45'0 0.0
2014-Dec-11 10:13N 01°17' E 103°45'0 0.0
2014-Dec-11 09:24N 01°17' E 103°45'0 0.0
2014-Dec-11 08:30N 01°17' E 103°45'0 0.0
2014-Dec-11 07:29N 01°17' E 103°45'0 0.0
2014-Dec-11 06:23N 01°17' E 103°45'0 0.0
2014-Dec-11 05:23N 01°17' E 103°45'0 0.0
2014-Dec-11 04:22N 01°17' E 103°45'0 0.0
2014-Dec-11 03:31N 01°17' E 103°45'0 0.0
2014-Dec-11 02:15N 01°17' E 103°45'0 0.0
2014-Dec-11 01:33N 01°17' E 103°45'0 0.0
2014-Dec-10 23:32N 01°17' E 103°45'0 0.0
2014-Dec-10 22:26N 01°17' E 103°45'0 0.0
2014-Dec-10 21:31N 01°17' E 103°45'0 0.0
2014-Dec-10 20:22N 01°17' E 103°45'0 0.0
2014-Dec-10 19:33N 01°17' E 103°45'0 0.0
2014-Dec-10 17:17N 01°17' E 103°45'0 0.0
2014-Dec-10 16:29N 01°17' E 103°45'0 0.0
2014-Dec-10 15:13N 01°17' E 103°45'0 0.0
2014-Dec-10 14:28N 01°17' E 103°45'0 0.0
2014-Dec-10 13:22N 01°17' E 103°45'0 0.0
2014-Dec-10 07:19N 01°17' E 103°45'0 0.0
2014-Dec-10 06:32N 01°17' E 103°45'0 0.0
2014-Dec-10 05:33N 01°17' E 103°45'0 0.0
2014-Dec-10 04:33N 01°17' E 103°45'0 0.0
2014-Dec-10 03:32N 01°17' E 103°45'0 0.0
2014-Dec-10 01:28N 01°17' E 103°45'0 0.0
2014-Dec-10 00:16N 01°17' E 103°45'0 0.0
2014-Dec-09 22:30N 01°17' E 103°45'0 0.0
2014-Dec-09 21:06N 01°17' E 103°45'0 0.0
2014-Dec-09 18:31N 01°17' E 103°45'0 0.0
2014-Dec-09 17:07N 01°17' E 103°45'0 0.0
2014-Dec-09 13:33N 01°17' E 103°45'0 0.0
2014-Dec-09 08:27N 01°17' E 103°45'1 0.2
2014-Dec-09 05:13N 01°16' E 103°46'6 9.0
2014-Dec-09 04:31N 01°13' E 103°41'  
Track history (hours):
 
Tides and Currents Weather Stations Pressure Air Temp Water Temp Dewpoint Dewpoint Depression Visibility Wind Speed Wind Dir Waves Ship Positions

Hebe

Last reported at 2014-Dec-17 12:00 UTC. Time now 2014-Dec-18 10:34 UTC.
Position S 22°54' E 110°54'.

Length 220 m; draft 11.8 m.

Type: Ship. MMSI: 636091480.

Wind from 200 at 18 knots

Waves 3.5 meters (11 feet), 10 second period

Barometer 1011.0 mb
Air temperature 22.0 ° C
Visibility: greater than 10.8 NM
Dewpoint 19.0 ° C
Water temperature 23.0 ° C

Date/timePositionNaut miles runAvg speedWind from/ knotsBaromVisibWave heightAir tempDewpointWater temp
2014-Dec-17 12:00S 22°54' E 110°54'14716.3 200 / 181011.010.8 3.522.019.023.0
2014-Dec-17 03:00S 20°36' E 110°00'   200 / 141011.510.8 3.024.021.124.0
2014-Dec-14 15:00S 05°48' E 105°48'   360 / 101011.010.8 27.524.129.0
2014-Dec-12 07:20N 01°16' E 104°13'1215.3
2014-Dec-12 06:32N 01°15' E 104°01'7 6.6
2014-Dec-12 05:29N 01°16' E 103°54'0 0.0
2014-Dec-12 04:23N 01°16' E 103°54'0 0.0
2014-Dec-12 03:16N 01°16' E 103°54'0 0.0
2014-Dec-12 02:28N 01°16' E 103°54'0 0.0
2014-Dec-12 01:28N 01°16' E 103°54'0 0.0
2014-Dec-12 00:33N 01°16' E 103°54'0 0.0
2014-Dec-11 23:27N 01°16' E 103°54'0 0.0
2014-Dec-11 22:32N 01°16' E 103°54'0 0.0
2014-Dec-11 21:23N 01°16' E 103°54'0 0.0
2014-Dec-11 20:16N 01°16' E 103°54'0 0.0
2014-Dec-11 19:31N 01°16' E 103°54'0 0.0
2014-Dec-11 18:31N 01°16' E 103°54'0 0.0
2014-Dec-11 17:18N 01°16' E 103°54'0 0.1
2014-Dec-11 16:12N 01°16' E 103°54'4 5.6
2014-Dec-11 15:33N 01°13' E 103°52'8 7.6
2014-Dec-11 14:33N 01°16' E 103°45'0 0.2
2014-Dec-11 13:30N 01°17' E 103°45'0 0.0
2014-Dec-11 12:32N 01°17' E 103°45'0 0.0
2014-Dec-11 11:31N 01°17' E 103°45'0 0.0
2014-Dec-11 10:13N 01°17' E 103°45'0 0.0
2014-Dec-11 09:24N 01°17' E 103°45'0 0.0
2014-Dec-11 08:30N 01°17' E 103°45'0 0.0
2014-Dec-11 07:29N 01°17' E 103°45'0 0.0
2014-Dec-11 06:23N 01°17' E 103°45'0 0.0
2014-Dec-11 05:23N 01°17' E 103°45'0 0.0
2014-Dec-11 04:22N 01°17' E 103°45'0 0.0
2014-Dec-11 03:31N 01°17' E 103°45'0 0.0
2014-Dec-11 02:15N 01°17' E 103°45'0 0.0
2014-Dec-11 01:33N 01°17' E 103°45'0 0.0
2014-Dec-10 23:32N 01°17' E 103°45'0 0.0
2014-Dec-10 22:26N 01°17' E 103°45'0 0.0
2014-Dec-10 21:31N 01°17' E 103°45'0 0.0
2014-Dec-10 20:22N 01°17' E 103°45'0 0.0
2014-Dec-10 19:33N 01°17' E 103°45'0 0.0
2014-Dec-10 17:17N 01°17' E 103°45'0 0.0
2014-Dec-10 16:29N 01°17' E 103°45'0 0.0
2014-Dec-10 15:13N 01°17' E 103°45'0 0.0
2014-Dec-10 14:28N 01°17' E 103°45'0 0.0
2014-Dec-10 13:22N 01°17' E 103°45'0 0.0
2014-Dec-10 07:19N 01°17' E 103°45'0 0.0
2014-Dec-10 06:32N 01°17' E 103°45'0 0.0
2014-Dec-10 05:33N 01°17' E 103°45'0 0.0
2014-Dec-10 04:33N 01°17' E 103°45'0 0.0
2014-Dec-10 03:32N 01°17' E 103°45'0 0.0
2014-Dec-10 01:28N 01°17' E 103°45'0 0.0
2014-Dec-10 00:16N 01°17' E 103°45'0 0.0
2014-Dec-09 22:30N 01°17' E 103°45'0 0.0
2014-Dec-09 21:06N 01°17' E 103°45'0 0.0
2014-Dec-09 18:31N 01°17' E 103°45'0 0.0
2014-Dec-09 17:07N 01°17' E 103°45'0 0.0
2014-Dec-09 13:33N 01°17' E 103°45'0 0.0
2014-Dec-09 08:27N 01°17' E 103°45'1 0.2
2014-Dec-09 05:13N 01°16' E 103°46'6 9.0
2014-Dec-09 04:31N 01°13' E 103°41'  

Dump ship's entire track history